Iona, Minnesota
Current Conditions -  °F | °C
As of 9:54 AM on Friday 24 Oct 2014 (Local Time) from KDVP Reporting Station
Haze Haze  
Wind Chill: 54°   Ceiling: Unl
Heat Index: 54°   Visibility: 5mi
Dew Point: 52°   Wind: 9mph
Humidity: 94%   Direction: 270°W
Pressure: 29.88"   Gusts: NA
Location:  43.92°N, 95.78°W
Report Text: KDVP 241454Z AUTO 27008KT 5SM BR CLR 12/11 A2988 RMK AO2 T01200110
Loading
Personal Weather Stations






























Interactive Weather Map
Tropical Storm Tracking
New forecast layout! Learn more

10-Day Weather Forecast

Advertisements
Track Severe Weather on mobile